sensor_id;sensor_type;location;lat;lon;timestamp;temperature;humidity
13245;DHT22;6689;53.400;12.486;2023-04-03T00:00:45;2.00;99.90
13245;DHT22;6689;53.400;12.486;2023-04-03T00:03:14;2.00;99.90
13245;DHT22;6689;53.400;12.486;2023-04-03T00:05:41;2.00;99.90
13245;DHT22;6689;53.400;12.486;2023-04-03T00:08:08;2.00;99.90
13245;DHT22;6689;53.400;12.486;2023-04-03T00:10:36;1.90;99.90
13245;DHT22;6689;53.400;12.486;2023-04-03T00:13:04;1.90;99.90
13245;DHT22;6689;53.400;12.486;2023-04-03T00:15:32;1.90;99.90
13245;DHT22;6689;53.400;12.486;2023-04-03T00:17:59;1.90;99.90
13245;DHT22;6689;53.400;12.486;2023-04-03T00:20:28;1.90;99.90
13245;DHT22;6689;53.400;12.486;2023-04-03T00:22:55;1.90;99.90
13245;DHT22;6689;53.400;12.486;2023-04-03T00:25:22;1.80;99.90
13245;DHT22;6689;53.400;12.486;2023-04-03T00:27:50;1.80;99.90
13245;DHT22;6689;53.400;12.486;2023-04-03T00:30:19;1.80;99.90
13245;DHT22;6689;53.400;12.486;2023-04-03T00:32:48;1.70;99.90
13245;DHT22;6689;53.400;12.486;2023-04-03T00:35:16;1.70;99.90
13245;DHT22;6689;53.400;12.486;2023-04-03T00:37:45;1.70;99.90
13245;DHT22;6689;53.400;12.486;2023-04-03T00:40:15;1.70;99.90
13245;DHT22;6689;53.400;12.486;2023-04-03T00:42:43;1.60;99.90
13245;DHT22;6689;53.400;12.486;2023-04-03T00:45:34;1.60;99.90
13245;DHT22;6689;53.400;12.486;2023-04-03T00:48:03;1.60;99.90
13245;DHT22;6689;53.400;12.486;2023-04-03T00:50:34;1.60;99.90
13245;DHT22;6689;53.400;12.486;2023-04-03T00:53:04;1.70;99.90
13245;DHT22;6689;53.400;12.486;2023-04-03T00:55:32;1.60;99.90
13245;DHT22;6689;53.400;12.486;2023-04-03T00:58:00;1.60;99.90
13245;DHT22;6689;53.400;12.486;2023-04-03T01:00:28;1.50;99.90
13245;DHT22;6689;53.400;12.486;2023-04-03T01:02:56;1.50;99.90
13245;DHT22;6689;53.400;12.486;2023-04-03T01:05:23;1.50;99.90
13245;DHT22;6689;53.400;12.486;2023-04-03T01:07:51;1.50;99.90
13245;DHT22;6689;53.400;12.486;2023-04-03T01:10:21;1.50;99.90
13245;DHT22;6689;53.400;12.486;2023-04-03T01:12:49;1.50;99.90
13245;DHT22;6689;53.400;12.486;2023-04-03T01:15:19;1.50;99.90
13245;DHT22;6689;53.400;12.486;2023-04-03T01:17:49;1.50;99.90
13245;DHT22;6689;53.400;12.486;2023-04-03T01:20:43;1.50;99.90
13245;DHT22;6689;53.400;12.486;2023-04-03T01:23:25;1.50;99.90
13245;DHT22;6689;53.400;12.486;2023-04-03T01:25:56;1.50;99.90
13245;DHT22;6689;53.400;12.486;2023-04-03T01:28:25;1.50;99.90
13245;DHT22;6689;53.400;12.486;2023-04-03T01:30:59;1.40;99.90
13245;DHT22;6689;53.400;12.486;2023-04-03T01:33:29;1.40;99.90
13245;DHT22;6689;53.400;12.486;2023-04-03T01:35:57;1.50;99.90
13245;DHT22;6689;53.400;12.486;2023-04-03T01:38:24;1.40;99.90
13245;DHT22;6689;53.400;12.486;2023-04-03T01:40:52;1.40;99.90
13245;DHT22;6689;53.400;12.486;2023-04-03T01:43:20;1.40;99.90
13245;DHT22;6689;53.400;12.486;2023-04-03T01:45:47;1.40;99.90
13245;DHT22;6689;53.400;12.486;2023-04-03T01:48:17;1.40;99.90
13245;DHT22;6689;53.400;12.486;2023-04-03T01:50:46;1.40;99.90
13245;DHT22;6689;53.400;12.486;2023-04-03T01:53:14;1.40;99.90
13245;DHT22;6689;53.400;12.486;2023-04-03T01:55:41;1.40;99.90
13245;DHT22;6689;53.400;12.486;2023-04-03T01:58:10;1.30;99.90
13245;DHT22;6689;53.400;12.486;2023-04-03T02:00:38;1.40;99.90
13245;DHT22;6689;53.400;12.486;2023-04-03T02:03:05;1.40;99.90
13245;DHT22;6689;53.400;12.486;2023-04-03T02:05:33;1.60;99.90
13245;DHT22;6689;53.400;12.486;2023-04-03T02:08:01;1.30;99.90
13245;DHT22;6689;53.400;12.486;2023-04-03T02:10:28;1.30;99.90
13245;DHT22;6689;53.400;12.486;2023-04-03T02:12:56;1.30;99.90
13245;DHT22;6689;53.400;12.486;2023-04-03T02:15:23;1.30;99.90
13245;DHT22;6689;53.400;12.486;2023-04-03T02:17:50;1.30;99.90
13245;DHT22;6689;53.400;12.486;2023-04-03T02:20:18;1.30;99.90
13245;DHT22;6689;53.400;12.486;2023-04-03T02:22:45;1.30;99.90
13245;DHT22;6689;53.400;12.486;2023-04-03T02:25:15;1.30;99.90
13245;DHT22;6689;53.400;12.486;2023-04-03T02:27:43;1.30;99.90
13245;DHT22;6689;53.400;12.486;2023-04-03T02:30:11;1.30;99.90
13245;DHT22;6689;53.400;12.486;2023-04-03T02:32:39;1.20;99.90
13245;DHT22;6689;53.400;12.486;2023-04-03T02:35:07;1.20;99.90
13245;DHT22;6689;53.400;12.486;2023-04-03T02:37:34;1.20;99.90
13245;DHT22;6689;53.400;12.486;2023-04-03T02:40:02;1.20;99.90
13245;DHT22;6689;53.400;12.486;2023-04-03T02:42:30;1.20;99.90
13245;DHT22;6689;53.400;12.486;2023-04-03T02:44:58;1.20;99.90
13245;DHT22;6689;53.400;12.486;2023-04-03T02:47:29;1.20;99.90
13245;DHT22;6689;53.400;12.486;2023-04-03T02:49:56;1.20;99.90
13245;DHT22;6689;53.400;12.486;2023-04-03T02:52:23;1.20;99.90
13245;DHT22;6689;53.400;12.486;2023-04-03T02:54:51;1.10;99.90
13245;DHT22;6689;53.400;12.486;2023-04-03T02:57:18;1.10;99.90
13245;DHT22;6689;53.400;12.486;2023-04-03T02:59:47;1.10;99.90
13245;DHT22;6689;53.400;12.486;2023-04-03T03:02:16;1.10;99.90
13245;DHT22;6689;53.400;12.486;2023-04-03T03:04:43;1.10;99.90
13245;DHT22;6689;53.400;12.486;2023-04-03T03:07:11;1.00;99.90
13245;DHT22;6689;53.400;12.486;2023-04-03T03:09:38;1.00;99.90
13245;DHT22;6689;53.400;12.486;2023-04-03T03:12:06;1.00;99.90
13245;DHT22;6689;53.400;12.486;2023-04-03T03:14:33;1.10;99.90
13245;DHT22;6689;53.400;12.486;2023-04-03T03:17:02;1.00;99.90
13245;DHT22;6689;53.400;12.486;2023-04-03T03:19:29;1.00;99.90
13245;DHT22;6689;53.400;12.486;2023-04-03T03:21:56;1.00;99.90
13245;DHT22;6689;53.400;12.486;2023-04-03T03:24:24;1.00;99.90
13245;DHT22;6689;53.400;12.486;2023-04-03T03:26:51;1.00;99.90
13245;DHT22;6689;53.400;12.486;2023-04-03T03:29:20;0.90;99.90
13245;DHT22;6689;53.400;12.486;2023-04-03T03:31:47;0.90;99.90
13245;DHT22;6689;53.400;12.486;2023-04-03T03:34:20;1.20;99.90
13245;DHT22;6689;53.400;12.486;2023-04-03T03:36:47;0.90;99.90
13245;DHT22;6689;53.400;12.486;2023-04-03T03:39:15;0.90;99.90
13245;DHT22;6689;53.400;12.486;2023-04-03T03:41:42;1.10;99.90
13245;DHT22;6689;53.400;12.486;2023-04-03T03:44:10;0.80;99.90
13245;DHT22;6689;53.400;12.486;2023-04-03T03:46:37;0.80;99.90
13245;DHT22;6689;53.400;12.486;2023-04-03T03:49:05;0.80;99.90
13245;DHT22;6689;53.400;12.486;2023-04-03T03:51:33;0.80;99.90
13245;DHT22;6689;53.400;12.486;2023-04-03T03:54:01;0.80;99.90
13245;DHT22;6689;53.400;12.486;2023-04-03T03:56:28;0.70;99.90
13245;DHT22;6689;53.400;12.486;2023-04-03T03:58:55;0.90;99.90
13245;DHT22;6689;53.400;12.486;2023-04-03T04:01:24;0.70;99.90
13245;DHT22;6689;53.400;12.486;2023-04-03T04:03:51;0.70;99.90
13245;DHT22;6689;53.400;12.486;2023-04-03T04:06:20;0.70;99.90
13245;DHT22;6689;53.400;12.486;2023-04-03T04:08:49;0.60;99.90
13245;DHT22;6689;53.400;12.486;2023-04-03T04:11:16;0.80;99.90
13245;DHT22;6689;53.400;12.486;2023-04-03T04:13:44;0.60;99.90
13245;DHT22;6689;53.400;12.486;2023-04-03T04:16:11;0.60;99.90
13245;DHT22;6689;53.400;12.486;2023-04-03T04:18:38;0.60;99.90
13245;DHT22;6689;53.400;12.486;2023-04-03T04:21:05;0.60;99.90
13245;DHT22;6689;53.400;12.486;2023-04-03T04:23:33;0.60;99.90
13245;DHT22;6689;53.400;12.486;2023-04-03T04:26:01;0.50;99.90
13245;DHT22;6689;53.400;12.486;2023-04-03T04:28:28;0.60;99.90
13245;DHT22;6689;53.400;12.486;2023-04-03T04:30:56;0.50;99.90
13245;DHT22;6689;53.400;12.486;2023-04-03T04:33:25;0.70;99.90
13245;DHT22;6689;53.400;12.486;2023-04-03T04:35:52;0.50;99.90
13245;DHT22;6689;53.400;12.486;2023-04-03T04:38:20;0.50;99.90
13245;DHT22;6689;53.400;12.486;2023-04-03T04:40:48;0.50;99.90
13245;DHT22;6689;53.400;12.486;2023-04-03T04:43:19;0.50;99.90
13245;DHT22;6689;53.400;12.486;2023-04-03T04:45:46;0.50;99.90
13245;DHT22;6689;53.400;12.486;2023-04-03T04:48:14;0.50;99.90
13245;DHT22;6689;53.400;12.486;2023-04-03T04:50:41;0.50;99.90
13245;DHT22;6689;53.400;12.486;2023-04-03T04:53:08;0.50;99.90
13245;DHT22;6689;53.400;12.486;2023-04-03T04:55:38;0.50;99.90
13245;DHT22;6689;53.400;12.486;2023-04-03T04:58:05;0.50;99.90
13245;DHT22;6689;53.400;12.486;2023-04-03T05:00:36;0.50;99.90
13245;DHT22;6689;53.400;12.486;2023-04-03T05:03:03;0.50;99.90
13245;DHT22;6689;53.400;12.486;2023-04-03T05:05:31;0.50;99.90
13245;DHT22;6689;53.400;12.486;2023-04-03T05:07:58;0.50;99.90
13245;DHT22;6689;53.400;12.486;2023-04-03T05:10:27;0.50;99.90
13245;DHT22;6689;53.400;12.486;2023-04-03T05:12:55;0.50;99.90
13245;DHT22;6689;53.400;12.486;2023-04-03T05:15:22;0.50;99.90
13245;DHT22;6689;53.400;12.486;2023-04-03T05:17:51;0.60;99.90
13245;DHT22;6689;53.400;12.486;2023-04-03T05:20:18;0.60;99.90
13245;DHT22;6689;53.400;12.486;2023-04-03T05:22:45;0.60;99.90
13245;DHT22;6689;53.400;12.486;2023-04-03T05:25:13;0.60;99.90
13245;DHT22;6689;53.400;12.486;2023-04-03T05:27:40;0.70;99.90
13245;DHT22;6689;53.400;12.486;2023-04-03T05:30:08;0.70;99.90
13245;DHT22;6689;53.400;12.486;2023-04-03T05:32:36;0.70;99.90
13245;DHT22;6689;53.400;12.486;2023-04-03T05:35:06;0.80;99.90
13245;DHT22;6689;53.400;12.486;2023-04-03T05:37:33;0.80;99.90
13245;DHT22;6689;53.400;12.486;2023-04-03T05:40:01;0.90;99.90
13245;DHT22;6689;53.400;12.486;2023-04-03T05:42:29;0.90;99.90
13245;DHT22;6689;53.400;12.486;2023-04-03T05:44:56;1.10;99.90
13245;DHT22;6689;53.400;12.486;2023-04-03T05:47:23;1.20;99.90
13245;DHT22;6689;53.400;12.486;2023-04-03T05:49:51;1.30;99.90
13245;DHT22;6689;53.400;12.486;2023-04-03T05:52:21;1.40;99.90
13245;DHT22;6689;53.400;12.486;2023-04-03T05:54:49;1.50;99.90
13245;DHT22;6689;53.400;12.486;2023-04-03T05:57:18;1.70;99.90
13245;DHT22;6689;53.400;12.486;2023-04-03T05:59:46;1.80;99.90
13245;DHT22;6689;53.400;12.486;2023-04-03T06:02:15;1.90;99.90
13245;DHT22;6689;53.400;12.486;2023-04-03T06:04:43;2.00;99.90
13245;DHT22;6689;53.400;12.486;2023-04-03T06:07:14;2.10;99.90
13245;DHT22;6689;53.400;12.486;2023-04-03T06:09:44;2.20;99.90
13245;DHT22;6689;53.400;12.486;2023-04-03T06:12:12;2.30;99.90
13245;DHT22;6689;53.400;12.486;2023-04-03T06:14:39;2.30;99.90
13245;DHT22;6689;53.400;12.486;2023-04-03T06:17:06;2.40;99.90
13245;DHT22;6689;53.400;12.486;2023-04-03T06:19:34;2.50;99.90
13245;DHT22;6689;53.400;12.486;2023-04-03T06:22:01;2.50;99.90
13245;DHT22;6689;53.400;12.486;2023-04-03T06:24:29;2.60;99.90
13245;DHT22;6689;53.400;12.486;2023-04-03T06:27:02;2.70;99.90
13245;DHT22;6689;53.400;12.486;2023-04-03T06:29:29;2.80;99.90
13245;DHT22;6689;53.400;12.486;2023-04-03T06:31:56;2.90;99.90
13245;DHT22;6689;53.400;12.486;2023-04-03T06:34:23;2.90;99.90
13245;DHT22;6689;53.400;12.486;2023-04-03T06:36:51;3.00;99.90
13245;DHT22;6689;53.400;12.486;2023-04-03T06:39:20;3.20;99.90
13245;DHT22;6689;53.400;12.486;2023-04-03T06:41:48;3.30;99.90
13245;DHT22;6689;53.400;12.486;2023-04-03T06:44:17;3.50;99.90
13245;DHT22;6689;53.400;12.486;2023-04-03T06:46:45;3.80;99.90
13245;DHT22;6689;53.400;12.486;2023-04-03T06:49:14;4.10;99.90
13245;DHT22;6689;53.400;12.486;2023-04-03T06:51:42;4.30;99.90
13245;DHT22;6689;53.400;12.486;2023-04-03T06:54:09;5.00;99.90
13245;DHT22;6689;53.400;12.486;2023-04-03T06:56:40;5.40;99.90
13245;DHT22;6689;53.400;12.486;2023-04-03T06:59:08;5.70;99.90
13245;DHT22;6689;53.400;12.486;2023-04-03T07:01:38;6.40;99.90
13245;DHT22;6689;53.400;12.486;2023-04-03T07:04:05;7.00;75.90
13245;DHT22;6689;53.400;12.486;2023-04-03T07:06:33;7.70;45.80
13245;DHT22;6689;53.400;12.486;2023-04-03T07:09:01;8.40;22.10
13245;DHT22;6689;53.400;12.486;2023-04-03T07:11:28;9.00;7.60
13245;DHT22;6689;53.400;12.486;2023-04-03T07:13:56;10.00;1.00
13245;DHT22;6689;53.400;12.486;2023-04-03T07:16:23;10.30;1.00
13245;DHT22;6689;53.400;12.486;2023-04-03T07:18:52;11.10;1.00
13245;DHT22;6689;53.400;12.486;2023-04-03T07:21:19;10.60;1.00
13245;DHT22;6689;53.400;12.486;2023-04-03T07:23:46;10.60;1.00
13245;DHT22;6689;53.400;12.486;2023-04-03T07:26:26;11.40;1.00
13245;DHT22;6689;53.400;12.486;2023-04-03T07:28:53;13.20;1.00
13245;DHT22;6689;53.400;12.486;2023-04-03T07:31:20;12.10;1.00
13245;DHT22;6689;53.400;12.486;2023-04-03T07:33:48;11.30;1.00
13245;DHT22;6689;53.400;12.486;2023-04-03T07:36:19;10.30;1.00
13245;DHT22;6689;53.400;12.486;2023-04-03T07:38:47;12.70;1.00
13245;DHT22;6689;53.400;12.486;2023-04-03T07:41:17;9.60;1.00
13245;DHT22;6689;53.400;12.486;2023-04-03T07:43:44;8.00;1.00
13245;DHT22;6689;53.400;12.486;2023-04-03T07:46:12;8.40;1.00
13245;DHT22;6689;53.400;12.486;2023-04-03T07:48:41;9.60;1.00
13245;DHT22;6689;53.400;12.486;2023-04-03T07:51:10;13.00;1.00
13245;DHT22;6689;53.400;12.486;2023-04-03T07:53:40;13.60;1.00
13245;DHT22;6689;53.400;12.486;2023-04-03T07:56:08;14.10;1.00
13245;DHT22;6689;53.400;12.486;2023-04-03T07:58:36;13.40;1.00
13245;DHT22;6689;53.400;12.486;2023-04-03T08:01:04;15.20;1.00
13245;DHT22;6689;53.400;12.486;2023-04-03T08:03:31;13.70;1.00
13245;DHT22;6689;53.400;12.486;2023-04-03T08:06:02;12.90;1.00
13245;DHT22;6689;53.400;12.486;2023-04-03T08:08:31;14.30;1.00
13245;DHT22;6689;53.400;12.486;2023-04-03T08:11:00;16.50;1.00
13245;DHT22;6689;53.400;12.486;2023-04-03T08:13:29;14.20;1.00
13245;DHT22;6689;53.400;12.486;2023-04-03T08:15:56;15.10;1.00
13245;DHT22;6689;53.400;12.486;2023-04-03T08:18:24;13.90;1.00
13245;DHT22;6689;53.400;12.486;2023-04-03T08:20:52;12.70;1.00
13245;DHT22;6689;53.400;12.486;2023-04-03T08:23:22;12.90;1.00
13245;DHT22;6689;53.400;12.486;2023-04-03T08:25:50;13.30;1.00
13245;DHT22;6689;53.400;12.486;2023-04-03T08:28:18;12.10;1.00
13245;DHT22;6689;53.400;12.486;2023-04-03T08:30:45;12.00;1.00
13245;DHT22;6689;53.400;12.486;2023-04-03T08:33:13;13.70;1.00
13245;DHT22;6689;53.400;12.486;2023-04-03T08:35:41;13.20;1.00
13245;DHT22;6689;53.400;12.486;2023-04-03T08:38:09;10.00;1.00
13245;DHT22;6689;53.400;12.486;2023-04-03T08:40:37;9.70;1.00
13245;DHT22;6689;53.400;12.486;2023-04-03T08:43:24;9.30;1.00
13245;DHT22;6689;53.400;12.486;2023-04-03T08:45:56;7.90;1.00
13245;DHT22;6689;53.400;12.486;2023-04-03T08:48:29;8.90;1.00
13245;DHT22;6689;53.400;12.486;2023-04-03T08:51:00;9.10;1.00
13245;DHT22;6689;53.400;12.486;2023-04-03T08:53:32;8.90;1.00
13245;DHT22;6689;53.400;12.486;2023-04-03T08:56:02;8.50;1.00
13245;DHT22;6689;53.400;12.486;2023-04-03T08:58:36;8.10;1.00
13245;DHT22;6689;53.400;12.486;2023-04-03T09:01:17;7.90;1.00
13245;DHT22;6689;53.400;12.486;2023-04-03T09:03:45;6.90;1.00
13245;DHT22;6689;53.400;12.486;2023-04-03T09:06:15;6.80;1.00
13245;DHT22;6689;53.400;12.486;2023-04-03T09:08:45;6.10;1.00
13245;DHT22;6689;53.400;12.486;2023-04-03T09:11:21;6.20;1.00
13245;DHT22;6689;53.400;12.486;2023-04-03T09:13:54;5.60;1.00
13245;DHT22;6689;53.400;12.486;2023-04-03T09:16:35;5.80;1.00
13245;DHT22;6689;53.400;12.486;2023-04-03T09:19:13;5.80;1.00
13245;DHT22;6689;53.400;12.486;2023-04-03T09:21:44;6.20;1.00
13245;DHT22;6689;53.400;12.486;2023-04-03T09:24:14;6.00;1.00
13245;DHT22;6689;53.400;12.486;2023-04-03T09:26:44;6.40;1.00
13245;DHT22;6689;53.400;12.486;2023-04-03T09:29:18;6.50;1.00
13245;DHT22;6689;53.400;12.486;2023-04-03T09:31:50;6.60;1.00
13245;DHT22;6689;53.400;12.486;2023-04-03T09:34:23;6.90;1.00
13245;DHT22;6689;53.400;12.486;2023-04-03T09:36:54;6.90;1.00
13245;DHT22;6689;53.400;12.486;2023-04-03T09:39:23;7.40;1.00
13245;DHT22;6689;53.400;12.486;2023-04-03T09:42:01;7.50;1.00
13245;DHT22;6689;53.400;12.486;2023-04-03T09:44:33;7.20;1.00
13245;DHT22;6689;53.400;12.486;2023-04-03T09:47:18;6.90;1.00
13245;DHT22;6689;53.400;12.486;2023-04-03T09:49:48;7.20;1.00
13245;DHT22;6689;53.400;12.486;2023-04-03T09:52:19;6.70;1.00
13245;DHT22;6689;53.400;12.486;2023-04-03T09:54:47;6.80;1.00
13245;DHT22;6689;53.400;12.486;2023-04-03T09:57:14;6.90;1.00
13245;DHT22;6689;53.400;12.486;2023-04-03T09:59:47;6.80;1.00
13245;DHT22;6689;53.400;12.486;2023-04-03T10:02:28;6.70;1.00
13245;DHT22;6689;53.400;12.486;2023-04-03T10:04:57;7.10;1.00
13245;DHT22;6689;53.400;12.486;2023-04-03T10:07:33;6.90;1.00
13245;DHT22;6689;53.400;12.486;2023-04-03T10:10:15;6.90;1.00
13245;DHT22;6689;53.400;12.486;2023-04-03T10:12:43;6.70;1.00
13245;DHT22;6689;53.400;12.486;2023-04-03T10:15:16;6.90;1.00
13245;DHT22;6689;53.400;12.486;2023-04-03T10:17:52;6.90;1.00
13245;DHT22;6689;53.400;12.486;2023-04-03T10:20:32;7.20;1.00
13245;DHT22;6689;53.400;12.486;2023-04-03T10:23:15;7.60;1.00
13245;DHT22;6689;53.400;12.486;2023-04-03T10:25:56;7.60;1.00
13245;DHT22;6689;53.400;12.486;2023-04-03T10:28:33;7.70;1.00
13245;DHT22;6689;53.400;12.486;2023-04-03T10:31:08;7.70;1.00
13245;DHT22;6689;53.400;12.486;2023-04-03T10:33:54;7.80;1.00
13245;DHT22;6689;53.400;12.486;2023-04-03T10:36:34;8.20;1.00
13245;DHT22;6689;53.400;12.486;2023-04-03T10:39:12;8.00;1.00
13245;DHT22;6689;53.400;12.486;2023-04-03T10:41:51;8.20;1.00
13245;DHT22;6689;53.400;12.486;2023-04-03T10:44:27;8.40;1.00
13245;DHT22;6689;53.400;12.486;2023-04-03T10:47:03;8.30;1.00
13245;DHT22;6689;53.400;12.486;2023-04-03T10:49:35;8.50;1.00
13245;DHT22;6689;53.400;12.486;2023-04-03T10:52:11;7.70;1.00
13245;DHT22;6689;53.400;12.486;2023-04-03T10:54:43;8.40;1.00
13245;DHT22;6689;53.400;12.486;2023-04-03T10:57:13;8.20;1.00
13245;DHT22;6689;53.400;12.486;2023-04-03T10:59:44;8.50;1.00
13245;DHT22;6689;53.400;12.486;2023-04-03T11:02:18;8.60;1.00
13245;DHT22;6689;53.400;12.486;2023-04-03T11:04:56;8.50;1.00
13245;DHT22;6689;53.400;12.486;2023-04-03T11:07:31;8.50;1.00
13245;DHT22;6689;53.400;12.486;2023-04-03T11:10:03;8.20;1.00
13245;DHT22;6689;53.400;12.486;2023-04-03T11:12:38;8.30;1.00
13245;DHT22;6689;53.400;12.486;2023-04-03T11:15:14;7.60;1.00
13245;DHT22;6689;53.400;12.486;2023-04-03T11:17:46;7.50;1.00
13245;DHT22;6689;53.400;12.486;2023-04-03T11:20:19;7.80;1.00
13245;DHT22;6689;53.400;12.486;2023-04-03T11:22:57;8.00;1.00
13245;DHT22;6689;53.400;12.486;2023-04-03T11:25:26;8.10;1.00
13245;DHT22;6689;53.400;12.486;2023-04-03T11:27:58;8.00;1.00
13245;DHT22;6689;53.400;12.486;2023-04-03T11:30:30;7.90;1.00
13245;DHT22;6689;53.400;12.486;2023-04-03T11:36:00;8.10;1.00
13245;DHT22;6689;53.400;12.486;2023-04-03T11:38:33;7.70;1.00
13245;DHT22;6689;53.400;12.486;2023-04-03T11:41:08;8.10;1.00
13245;DHT22;6689;53.400;12.486;2023-04-03T11:43:41;8.00;1.00
13245;DHT22;6689;53.400;12.486;2023-04-03T11:46:09;8.20;1.00
13245;DHT22;6689;53.400;12.486;2023-04-03T11:48:49;8.10;1.00
13245;DHT22;6689;53.400;12.486;2023-04-03T11:51:39;8.50;1.00
13245;DHT22;6689;53.400;12.486;2023-04-03T11:54:36;8.80;1.00
13245;DHT22;6689;53.400;12.486;2023-04-03T12:09:29;8.50;1.00
13245;DHT22;6689;53.400;12.486;2023-04-03T12:11:59;8.00;1.00
13245;DHT22;6689;53.400;12.486;2023-04-03T12:14:28;8.30;1.00
13245;DHT22;6689;53.400;12.486;2023-04-03T12:16:56;8.30;1.00
13245;DHT22;6689;53.400;12.486;2023-04-03T12:19:32;8.20;1.00
13245;DHT22;6689;53.400;12.486;2023-04-03T12:22:11;8.20;1.00
13245;DHT22;6689;53.400;12.486;2023-04-03T12:24:41;8.20;1.00
13245;DHT22;6689;53.400;12.486;2023-04-03T12:27:17;8.20;1.00
13245;DHT22;6689;53.400;12.486;2023-04-03T12:29:53;8.20;1.00
13245;DHT22;6689;53.400;12.486;2023-04-03T12:32:37;8.20;1.00
13245;DHT22;6689;53.400;12.486;2023-04-03T12:35:19;8.30;1.00
13245;DHT22;6689;53.400;12.486;2023-04-03T12:40:48;8.60;1.00
13245;DHT22;6689;53.400;12.486;2023-04-03T12:43:20;8.80;1.00
13245;DHT22;6689;53.400;12.486;2023-04-03T12:45:56;8.90;1.00
13245;DHT22;6689;53.400;12.486;2023-04-03T12:48:30;9.10;1.00
13245;DHT22;6689;53.400;12.486;2023-04-03T12:50:58;8.90;1.00
13245;DHT22;6689;53.400;12.486;2023-04-03T12:53:31;8.60;1.00
13245;DHT22;6689;53.400;12.486;2023-04-03T12:56:23;8.60;1.00
13245;DHT22;6689;53.400;12.486;2023-04-03T12:58:52;8.70;1.00
13245;DHT22;6689;53.400;12.486;2023-04-03T13:01:25;8.20;1.00
13245;DHT22;6689;53.400;12.486;2023-04-03T13:03:54;8.50;1.00
13245;DHT22;6689;53.400;12.486;2023-04-03T13:06:25;8.70;1.00
13245;DHT22;6689;53.400;12.486;2023-04-03T13:08:54;8.60;1.00
13245;DHT22;6689;53.400;12.486;2023-04-03T13:11:25;8.30;1.00
13245;DHT22;6689;53.400;12.486;2023-04-03T13:13:57;7.90;1.00
13245;DHT22;6689;53.400;12.486;2023-04-03T13:16:25;7.80;1.00
13245;DHT22;6689;53.400;12.486;2023-04-03T13:18:53;8.20;1.00
13245;DHT22;6689;53.400;12.486;2023-04-03T13:21:22;8.00;1.00
13245;DHT22;6689;53.400;12.486;2023-04-03T13:23:54;8.60;1.00
13245;DHT22;6689;53.400;12.486;2023-04-03T13:26:27;8.30;1.00
13245;DHT22;6689;53.400;12.486;2023-04-03T13:28:57;7.80;1.00
13245;DHT22;6689;53.400;12.486;2023-04-03T13:31:29;7.80;1.00
13245;DHT22;6689;53.400;12.486;2023-04-03T13:34:03;8.40;1.00
13245;DHT22;6689;53.400;12.486;2023-04-03T13:36:34;8.00;1.00
13245;DHT22;6689;53.400;12.486;2023-04-03T13:39:06;8.60;1.00
13245;DHT22;6689;53.400;12.486;2023-04-03T13:41:37;8.70;1.00
13245;DHT22;6689;53.400;12.486;2023-04-03T13:44:25;8.80;1.00
13245;DHT22;6689;53.400;12.486;2023-04-03T13:46:55;8.90;1.00
13245;DHT22;6689;53.400;12.486;2023-04-03T13:49:36;8.70;1.00
13245;DHT22;6689;53.400;12.486;2023-04-03T13:52:22;8.50;1.00
13245;DHT22;6689;53.400;12.486;2023-04-03T13:54:53;8.10;1.00
13245;DHT22;6689;53.400;12.486;2023-04-03T13:57:24;8.20;1.00
13245;DHT22;6689;53.400;12.486;2023-04-03T13:59:52;8.40;1.00
13245;DHT22;6689;53.400;12.486;2023-04-03T14:02:22;8.10;1.00
13245;DHT22;6689;53.400;12.486;2023-04-03T14:04:54;7.60;1.00
13245;DHT22;6689;53.400;12.486;2023-04-03T14:07:24;7.50;1.00
13245;DHT22;6689;53.400;12.486;2023-04-03T14:09:55;6.90;1.00
13245;DHT22;6689;53.400;12.486;2023-04-03T14:12:28;7.40;1.00
13245;DHT22;6689;53.400;12.486;2023-04-03T14:14:56;7.90;1.00
13245;DHT22;6689;53.400;12.486;2023-04-03T14:17:25;8.20;1.00
13245;DHT22;6689;53.400;12.486;2023-04-03T14:19:54;7.70;1.00
13245;DHT22;6689;53.400;12.486;2023-04-03T14:22:23;7.90;1.00
13245;DHT22;6689;53.400;12.486;2023-04-03T14:24:52;7.90;1.00
13245;DHT22;6689;53.400;12.486;2023-04-03T14:27:22;7.80;1.00
13245;DHT22;6689;53.400;12.486;2023-04-03T14:29:52;7.30;1.00
13245;DHT22;6689;53.400;12.486;2023-04-03T14:32:21;7.20;1.00
13245;DHT22;6689;53.400;12.486;2023-04-03T14:34:52;7.40;1.00
13245;DHT22;6689;53.400;12.486;2023-04-03T14:37:23;7.50;1.00
13245;DHT22;6689;53.400;12.486;2023-04-03T14:39:51;7.60;1.00
13245;DHT22;6689;53.400;12.486;2023-04-03T14:42:21;7.60;1.00
13245;DHT22;6689;53.400;12.486;2023-04-03T14:44:50;7.40;1.00
13245;DHT22;6689;53.400;12.486;2023-04-03T14:47:20;7.40;1.00
13245;DHT22;6689;53.400;12.486;2023-04-03T14:49:48;7.80;1.00
13245;DHT22;6689;53.400;12.486;2023-04-03T14:52:19;7.60;1.00
13245;DHT22;6689;53.400;12.486;2023-04-03T14:54:47;7.90;1.00
13245;DHT22;6689;53.400;12.486;2023-04-03T14:57:15;7.60;1.00
13245;DHT22;6689;53.400;12.486;2023-04-03T14:59:45;7.80;1.00
13245;DHT22;6689;53.400;12.486;2023-04-03T15:02:32;7.80;1.00
13245;DHT22;6689;53.400;12.486;2023-04-03T15:05:02;7.80;1.00
13245;DHT22;6689;53.400;12.486;2023-04-03T15:07:32;7.60;1.00
13245;DHT22;6689;53.400;12.486;2023-04-03T15:10:02;7.50;1.00
13245;DHT22;6689;53.400;12.486;2023-04-03T15:12:33;7.60;1.00
13245;DHT22;6689;53.400;12.486;2023-04-03T15:15:00;7.70;1.00
13245;DHT22;6689;53.400;12.486;2023-04-03T15:17:29;7.60;1.00
13245;DHT22;6689;53.400;12.486;2023-04-03T15:19:58;7.40;1.00
13245;DHT22;6689;53.400;12.486;2023-04-03T15:22:25;7.40;1.00
13245;DHT22;6689;53.400;12.486;2023-04-03T15:24:53;7.30;1.00
13245;DHT22;6689;53.400;12.486;2023-04-03T15:27:20;7.10;1.00
13245;DHT22;6689;53.400;12.486;2023-04-03T15:29:47;7.20;1.00
13245;DHT22;6689;53.400;12.486;2023-04-03T15:32:14;7.30;1.00
13245;DHT22;6689;53.400;12.486;2023-04-03T15:34:42;7.40;1.00
13245;DHT22;6689;53.400;12.486;2023-04-03T15:37:11;7.50;1.00
13245;DHT22;6689;53.400;12.486;2023-04-03T15:39:40;7.40;1.00
13245;DHT22;6689;53.400;12.486;2023-04-03T15:42:10;7.10;1.00
13245;DHT22;6689;53.400;12.486;2023-04-03T15:44:38;7.40;1.00
13245;DHT22;6689;53.400;12.486;2023-04-03T15:47:05;7.00;1.00
13245;DHT22;6689;53.400;12.486;2023-04-03T15:49:33;6.90;1.00
13245;DHT22;6689;53.400;12.486;2023-04-03T15:52:01;7.00;1.00
13245;DHT22;6689;53.400;12.486;2023-04-03T15:54:30;7.20;1.00
13245;DHT22;6689;53.400;12.486;2023-04-03T15:56:57;7.10;1.00
13245;DHT22;6689;53.400;12.486;2023-04-03T15:59:25;7.30;1.00
13245;DHT22;6689;53.400;12.486;2023-04-03T16:01:54;7.10;1.00
13245;DHT22;6689;53.400;12.486;2023-04-03T16:04:22;7.10;1.00
13245;DHT22;6689;53.400;12.486;2023-04-03T16:06:50;7.20;1.00
13245;DHT22;6689;53.400;12.486;2023-04-03T16:09:17;6.90;1.00
13245;DHT22;6689;53.400;12.486;2023-04-03T16:11:46;7.00;1.00
13245;DHT22;6689;53.400;12.486;2023-04-03T16:14:14;7.00;1.00
13245;DHT22;6689;53.400;12.486;2023-04-03T16:16:41;7.20;1.00
13245;DHT22;6689;53.400;12.486;2023-04-03T16:19:09;7.10;1.00
13245;DHT22;6689;53.400;12.486;2023-04-03T16:21:37;7.00;1.00
13245;DHT22;6689;53.400;12.486;2023-04-03T16:24:04;7.10;1.00
13245;DHT22;6689;53.400;12.486;2023-04-03T16:26:32;7.00;1.00
13245;DHT22;6689;53.400;12.486;2023-04-03T16:29:00;6.90;1.00